sensor_id;sensor_type;location;lat;lon;timestamp;pressure;altitude;pressure_sealevel;temperature;humidity
11676;BME280;5894;42.768;23.404;2023-04-06T00:00:24;95463.94;;;2.20;100.00
11676;BME280;5894;42.768;23.404;2023-04-06T00:02:51;95455.63;;;2.18;100.00
11676;BME280;5894;42.768;23.404;2023-04-06T00:05:19;95411.97;;;1.88;100.00
11676;BME280;5894;42.768;23.404;2023-04-06T00:07:46;95449.63;;;2.17;100.00
11676;BME280;5894;42.768;23.404;2023-04-06T00:10:13;95431.38;;;2.07;100.00
11676;BME280;5894;42.768;23.404;2023-04-06T00:12:40;95442.63;;;2.23;100.00
11676;BME280;5894;42.768;23.404;2023-04-06T00:15:07;95414.97;;;2.07;100.00
11676;BME280;5894;42.768;23.404;2023-04-06T00:17:36;95436.88;;;2.16;100.00
11676;BME280;5894;42.768;23.404;2023-04-06T00:20:03;95430.91;;;2.20;100.00
11676;BME280;5894;42.768;23.404;2023-04-06T00:22:30;95425.44;;;2.17;100.00
11676;BME280;5894;42.768;23.404;2023-04-06T00:24:57;95415.22;;;2.05;100.00
11676;BME280;5894;42.768;23.404;2023-04-06T00:27:24;95392.25;;;1.92;100.00
11676;BME280;5894;42.768;23.404;2023-04-06T00:29:51;95408.72;;;2.08;100.00
11676;BME280;5894;42.768;23.404;2023-04-06T00:32:18;95415.81;;;2.17;100.00
11676;BME280;5894;42.768;23.404;2023-04-06T00:34:46;95415.53;;;2.19;100.00
11676;BME280;5894;42.768;23.404;2023-04-06T00:37:13;95392.84;;;2.04;100.00
11676;BME280;5894;42.768;23.404;2023-04-06T00:39:40;95415.28;;;2.20;100.00
11676;BME280;5894;42.768;23.404;2023-04-06T00:42:10;95402.88;;;2.28;100.00
11676;BME280;5894;42.768;23.404;2023-04-06T00:44:38;95405.97;;;2.25;100.00
11676;BME280;5894;42.768;23.404;2023-04-06T00:47:05;95406.25;;;2.28;100.00
11676;BME280;5894;42.768;23.404;2023-04-06T00:49:32;95360.06;;;2.03;100.00
11676;BME280;5894;42.768;23.404;2023-04-06T00:52:01;95402.88;;;2.33;100.00
11676;BME280;5894;42.768;23.404;2023-04-06T00:54:28;95405.47;;;2.28;100.00
11676;BME280;5894;42.768;23.404;2023-04-06T00:56:56;95396.38;;;2.35;100.00
11676;BME280;5894;42.768;23.404;2023-04-06T00:59:27;95404.19;;;2.35;100.00
11676;BME280;5894;42.768;23.404;2023-04-06T01:01:55;95394.56;;;2.36;100.00
11676;BME280;5894;42.768;23.404;2023-04-06T01:04:31;95400.56;;;2.41;100.00
11676;BME280;5894;42.768;23.404;2023-04-06T01:07:01;95389.63;;;2.34;100.00
11676;BME280;5894;42.768;23.404;2023-04-06T01:09:37;95377.63;;;2.28;100.00
11676;BME280;5894;42.768;23.404;2023-04-06T01:12:13;95390.94;;;2.37;100.00
11676;BME280;5894;42.768;23.404;2023-04-06T01:14:40;95352.31;;;2.13;100.00
11676;BME280;5894;42.768;23.404;2023-04-06T01:17:07;95384.69;;;2.38;100.00
11676;BME280;5894;42.768;23.404;2023-04-06T01:19:34;95385.19;;;2.35;100.00
11676;BME280;5894;42.768;23.404;2023-04-06T01:22:03;95382.34;;;2.36;100.00
11676;BME280;5894;42.768;23.404;2023-04-06T01:24:32;95371.91;;;2.31;100.00
11676;BME280;5894;42.768;23.404;2023-04-06T01:27:13;95380.78;;;2.35;100.00
11676;BME280;5894;42.768;23.404;2023-04-06T01:29:59;95374.78;;;2.35;100.00
11676;BME280;5894;42.768;23.404;2023-04-06T01:32:49;95370.59;;;2.29;100.00
11676;BME280;5894;42.768;23.404;2023-04-06T01:35:22;95331.94;;;2.00;100.00
11676;BME280;5894;42.768;23.404;2023-04-06T01:38:01;95364.63;;;2.33;100.00
11676;BME280;5894;42.768;23.404;2023-04-06T01:40:33;95364.34;;;2.25;100.00
11676;BME280;5894;42.768;23.404;2023-04-06T01:43:01;95374.50;;;2.26;100.00
11676;BME280;5894;42.768;23.404;2023-04-06T01:45:37;95371.66;;;2.33;100.00
11676;BME280;5894;42.768;23.404;2023-04-06T01:48:14;95366.41;;;2.22;100.00
11676;BME280;5894;42.768;23.404;2023-04-06T01:50:41;95360.66;;;2.20;100.00
11676;BME280;5894;42.768;23.404;2023-04-06T01:53:10;95361.47;;;2.26;100.00
11676;BME280;5894;42.768;23.404;2023-04-06T01:55:40;95348.88;;;2.08;100.00
11676;BME280;5894;42.768;23.404;2023-04-06T01:58:30;95378.81;;;2.10;100.00
11676;BME280;5894;42.768;23.404;2023-04-06T02:00:57;95362.94;;;2.07;100.00
11676;BME280;5894;42.768;23.404;2023-04-06T02:03:27;95358.00;;;2.10;100.00
11676;BME280;5894;42.768;23.404;2023-04-06T02:06:03;95358.00;;;2.05;100.00
11676;BME280;5894;42.768;23.404;2023-04-06T02:08:34;95356.13;;;2.01;100.00
11676;BME280;5894;42.768;23.404;2023-04-06T02:11:04;95346.50;;;1.96;100.00
11676;BME280;5894;42.768;23.404;2023-04-06T02:13:38;95352.50;;;2.02;100.00
11676;BME280;5894;42.768;23.404;2023-04-06T02:16:05;95348.09;;;2.02;100.00
11676;BME280;5894;42.768;23.404;2023-04-06T02:18:33;95346.47;;;1.91;100.00
11676;BME280;5894;42.768;23.404;2023-04-06T02:21:00;95351.72;;;1.96;100.00
11676;BME280;5894;42.768;23.404;2023-04-06T02:23:28;95345.94;;;1.89;100.00
11676;BME280;5894;42.768;23.404;2023-04-06T02:25:56;95330.78;;;1.76;100.00
11676;BME280;5894;42.768;23.404;2023-04-06T02:28:24;95352.69;;;1.85;100.00
11676;BME280;5894;42.768;23.404;2023-04-06T02:30:51;95345.91;;;1.84;100.00
11676;BME280;5894;42.768;23.404;2023-04-06T02:33:20;95345.06;;;1.73;100.00
11676;BME280;5894;42.768;23.404;2023-04-06T02:35:47;95354.63;;;1.68;100.00
11676;BME280;5894;42.768;23.404;2023-04-06T02:38:14;95345.31;;;1.72;100.00
11676;BME280;5894;42.768;23.404;2023-04-06T02:40:40;95346.31;;;1.66;100.00
11676;BME280;5894;42.768;23.404;2023-04-06T02:43:19;95348.66;;;1.67;100.00
11676;BME280;5894;42.768;23.404;2023-04-06T02:45:49;95319.94;;;1.47;100.00
11676;BME280;5894;42.768;23.404;2023-04-06T02:48:16;95356.25;;;1.74;100.00
11676;BME280;5894;42.768;23.404;2023-04-06T02:50:43;95335.16;;;1.70;100.00
11676;BME280;5894;42.768;23.404;2023-04-06T02:53:10;95346.13;;;1.77;100.00
11676;BME280;5894;42.768;23.404;2023-04-06T02:55:39;95360.94;;;1.77;100.00
11676;BME280;5894;42.768;23.404;2023-04-06T02:58:06;95350.53;;;1.77;100.00
11676;BME280;5894;42.768;23.404;2023-04-06T03:00:43;95342.97;;;1.70;100.00
11676;BME280;5894;42.768;23.404;2023-04-06T03:03:11;95349.50;;;1.78;100.00
11676;BME280;5894;42.768;23.404;2023-04-06T03:05:40;95354.22;;;1.81;100.00
11676;BME280;5894;42.768;23.404;2023-04-06T03:08:08;95357.88;;;1.85;100.00
11676;BME280;5894;42.768;23.404;2023-04-06T03:10:40;95323.44;;;1.63;100.00
11676;BME280;5894;42.768;23.404;2023-04-06T03:13:07;95354.03;;;1.98;100.00
11676;BME280;5894;42.768;23.404;2023-04-06T03:16:01;95357.16;;;1.95;100.00
11676;BME280;5894;42.768;23.404;2023-04-06T03:18:29;95358.97;;;1.94;100.00
11676;BME280;5894;42.768;23.404;2023-04-06T03:20:56;95325.59;;;1.76;100.00
11676;BME280;5894;42.768;23.404;2023-04-06T03:23:43;95327.44;;;1.80;100.00
11676;BME280;5894;42.768;23.404;2023-04-06T03:26:10;95362.16;;;2.06;100.00
11676;BME280;5894;42.768;23.404;2023-04-06T03:28:37;95347.28;;;1.97;100.00
11676;BME280;5894;42.768;23.404;2023-04-06T03:31:05;95361.38;;;2.06;100.00
11676;BME280;5894;42.768;23.404;2023-04-06T03:33:45;95321.75;;;1.89;100.00
11676;BME280;5894;42.768;23.404;2023-04-06T03:36:33;95356.97;;;2.11;100.00
11676;BME280;5894;42.768;23.404;2023-04-06T03:39:02;95352.56;;;2.12;100.00
11676;BME280;5894;42.768;23.404;2023-04-06T03:41:32;95338.97;;;2.00;100.00
11676;BME280;5894;42.768;23.404;2023-04-06T03:44:19;95357.25;;;2.15;100.00
11676;BME280;5894;42.768;23.404;2023-04-06T03:46:46;95351.53;;;2.13;100.00
11676;BME280;5894;42.768;23.404;2023-04-06T03:49:14;95334.31;;;2.02;100.00
11676;BME280;5894;42.768;23.404;2023-04-06T03:51:45;95348.38;;;2.06;100.00
11676;BME280;5894;42.768;23.404;2023-04-06T03:54:12;95345.53;;;2.07;100.00
11676;BME280;5894;42.768;23.404;2023-04-06T03:56:38;95352.31;;;2.13;100.00
11676;BME280;5894;42.768;23.404;2023-04-06T03:59:05;95347.84;;;2.09;100.00
11676;BME280;5894;42.768;23.404;2023-04-06T04:01:32;95347.06;;;2.08;100.00
11676;BME280;5894;42.768;23.404;2023-04-06T04:03:59;95348.94;;;2.13;100.00
11676;BME280;5894;42.768;23.404;2023-04-06T04:06:27;95340.31;;;2.07;100.00
11676;BME280;5894;42.768;23.404;2023-04-06T04:08:54;95351.53;;;2.13;100.00
11676;BME280;5894;42.768;23.404;2023-04-06T04:11:22;95343.69;;;2.08;100.00
11676;BME280;5894;42.768;23.404;2023-04-06T04:13:55;95349.72;;;2.13;100.00
11676;BME280;5894;42.768;23.404;2023-04-06T04:16:22;95342.94;;;2.12;100.00
11676;BME280;5894;42.768;23.404;2023-04-06T04:18:49;95327.00;;;1.94;100.00
11676;BME280;5894;42.768;23.404;2023-04-06T04:21:16;95357.03;;;2.16;100.00
11676;BME280;5894;42.768;23.404;2023-04-06T04:23:44;95353.63;;;2.21;100.00
11676;BME280;5894;42.768;23.404;2023-04-06T04:26:11;95357.53;;;2.18;100.00
11676;BME280;5894;42.768;23.404;2023-04-06T04:28:39;95355.44;;;2.15;100.00
11676;BME280;5894;42.768;23.404;2023-04-06T04:31:05;95339.44;;;1.92;100.00
11676;BME280;5894;42.768;23.404;2023-04-06T04:33:34;95360.41;;;2.22;100.00
11676;BME280;5894;42.768;23.404;2023-04-06T04:36:06;95364.03;;;2.21;100.00
11676;BME280;5894;42.768;23.404;2023-04-06T04:38:38;95349.22;;;2.16;100.00
11676;BME280;5894;42.768;23.404;2023-04-06T04:41:07;95324.69;;;1.97;100.00
11676;BME280;5894;42.768;23.404;2023-04-06T04:43:36;95338.78;;;2.11;100.00
11676;BME280;5894;42.768;23.404;2023-04-06T04:46:04;95342.41;;;2.10;100.00
11676;BME280;5894;42.768;23.404;2023-04-06T04:48:37;95335.44;;;2.21;100.00
11676;BME280;5894;42.768;23.404;2023-04-06T04:51:06;95351.13;;;2.41;100.00
11676;BME280;5894;42.768;23.404;2023-04-06T04:53:46;95359.72;;;2.42;100.00
11676;BME280;5894;42.768;23.404;2023-04-06T04:56:20;95322.19;;;2.22;100.00
11676;BME280;5894;42.768;23.404;2023-04-06T04:58:52;95306.97;;;1.94;100.00
11676;BME280;5894;42.768;23.404;2023-04-06T05:01:19;95286.16;;;1.94;100.00
11676;BME280;5894;42.768;23.404;2023-04-06T05:03:46;95329.22;;;2.27;100.00
11676;BME280;5894;42.768;23.404;2023-04-06T05:06:15;95350.34;;;2.41;100.00
11676;BME280;5894;42.768;23.404;2023-04-06T05:08:43;95351.34;;;2.30;100.00
11676;BME280;5894;42.768;23.404;2023-04-06T05:11:09;95343.06;;;2.38;100.00
11676;BME280;5894;42.768;23.404;2023-04-06T05:13:43;95332.34;;;2.29;100.00
11676;BME280;5894;42.768;23.404;2023-04-06T05:16:16;95342.28;;;2.42;100.00
11676;BME280;5894;42.768;23.404;2023-04-06T05:18:43;95334.22;;;2.39;100.00
11676;BME280;5894;42.768;23.404;2023-04-06T05:21:10;95340.94;;;2.30;100.00
11676;BME280;5894;42.768;23.404;2023-04-06T05:23:57;95337.03;;;2.32;100.00
11676;BME280;5894;42.768;23.404;2023-04-06T05:26:24;95334.69;;;2.31;100.00
11676;BME280;5894;42.768;23.404;2023-04-06T05:28:57;95341.25;;;2.38;100.00
11676;BME280;5894;42.768;23.404;2023-04-06T05:31:25;95337.56;;;2.39;100.00
11676;BME280;5894;42.768;23.404;2023-04-06T05:33:54;95334.22;;;2.44;100.00
11676;BME280;5894;42.768;23.404;2023-04-06T05:36:29;95333.94;;;2.40;100.00
11676;BME280;5894;42.768;23.404;2023-04-06T05:38:59;95328.97;;;2.34;100.00
11676;BME280;5894;42.768;23.404;2023-04-06T05:41:34;95334.22;;;2.44;100.00
11676;BME280;5894;42.768;23.404;2023-04-06T05:44:03;95314.94;;;2.40;100.00
11676;BME280;5894;42.768;23.404;2023-04-06T05:46:31;95324.09;;;2.52;100.00
11676;BME280;5894;42.768;23.404;2023-04-06T05:48:59;95320.72;;;2.62;100.00
11676;BME280;5894;42.768;23.404;2023-04-06T05:51:30;95333.78;;;2.72;100.00
11676;BME280;5894;42.768;23.404;2023-04-06T05:53:56;95311.63;;;2.60;100.00
11676;BME280;5894;42.768;23.404;2023-04-06T05:56:24;95318.69;;;2.74;100.00
11676;BME280;5894;42.768;23.404;2023-04-06T05:58:52;95310.38;;;2.77;100.00
11676;BME280;5894;42.768;23.404;2023-04-06T06:01:25;95287.94;;;2.66;100.00
11676;BME280;5894;42.768;23.404;2023-04-06T06:03:53;95279.63;;;2.69;100.00
11676;BME280;5894;42.768;23.404;2023-04-06T06:06:23;95317.94;;;3.04;100.00
11676;BME280;5894;42.768;23.404;2023-04-06T06:09:14;95316.63;;;3.02;100.00
11676;BME280;5894;42.768;23.404;2023-04-06T06:11:49;95320.03;;;3.07;100.00
11676;BME280;5894;42.768;23.404;2023-04-06T06:14:19;95321.59;;;3.08;100.00
11676;BME280;5894;42.768;23.404;2023-04-06T06:16:48;95293.72;;;2.93;100.00
11676;BME280;5894;42.768;23.404;2023-04-06T06:19:16;95305.19;;;3.03;100.00
11676;BME280;5894;42.768;23.404;2023-04-06T06:21:44;95321.88;;;3.07;100.00
11676;BME280;5894;42.768;23.404;2023-04-06T06:24:11;95296.59;;;3.07;100.00
11676;BME280;5894;42.768;23.404;2023-04-06T06:26:38;95291.88;;;2.94;100.00
11676;BME280;5894;42.768;23.404;2023-04-06T06:29:06;95327.06;;;3.22;100.00
11676;BME280;5894;42.768;23.404;2023-04-06T06:31:36;95331.00;;;3.24;100.00
11676;BME280;5894;42.768;23.404;2023-04-06T06:34:05;95331.00;;;3.24;100.00
11676;BME280;5894;42.768;23.404;2023-04-06T06:36:33;95290.34;;;3.08;100.00
11676;BME280;5894;42.768;23.404;2023-04-06T06:39:02;95307.00;;;3.22;100.00
11676;BME280;5894;42.768;23.404;2023-04-06T06:41:29;95329.69;;;3.37;100.00
11676;BME280;5894;42.768;23.404;2023-04-06T06:43:57;95329.69;;;3.47;100.00
11676;BME280;5894;42.768;23.404;2023-04-06T06:46:24;95268.44;;;3.14;100.00
11676;BME280;5894;42.768;23.404;2023-04-06T06:48:51;95331.50;;;3.57;100.00
11676;BME280;5894;42.768;23.404;2023-04-06T06:51:19;95301.53;;;3.39;100.00
11676;BME280;5894;42.768;23.404;2023-04-06T06:53:46;95322.13;;;3.46;100.00
11676;BME280;5894;42.768;23.404;2023-04-06T06:56:12;95333.84;;;3.63;100.00
11676;BME280;5894;42.768;23.404;2023-04-06T06:58:40;95339.31;;;3.67;100.00
11676;BME280;5894;42.768;23.404;2023-04-06T07:01:08;95339.59;;;3.71;100.00
11676;BME280;5894;42.768;23.404;2023-04-06T07:03:35;95278.63;;;3.31;100.00
11676;BME280;5894;42.768;23.404;2023-04-06T07:06:02;95320.31;;;3.51;100.00
11676;BME280;5894;42.768;23.404;2023-04-06T07:08:31;95335.69;;;3.53;100.00
11676;BME280;5894;42.768;23.404;2023-04-06T07:10:57;95323.97;;;3.40;100.00
11676;BME280;5894;42.768;23.404;2023-04-06T07:13:24;95338.53;;;3.46;100.00
11676;BME280;5894;42.768;23.404;2023-04-06T07:15:55;95339.59;;;3.40;100.00
11676;BME280;5894;42.768;23.404;2023-04-06T07:18:22;95320.81;;;3.33;100.00
11676;BME280;5894;42.768;23.404;2023-04-06T07:20:49;95328.38;;;3.50;100.00
11676;BME280;5894;42.768;23.404;2023-04-06T07:23:17;95331.78;;;3.40;100.00
11676;BME280;5894;42.768;23.404;2023-04-06T07:25:45;95275.47;;;3.04;100.00
11676;BME280;5894;42.768;23.404;2023-04-06T07:28:12;95328.13;;;3.41;100.00
11676;BME280;5894;42.768;23.404;2023-04-06T07:30:40;95333.59;;;3.40;100.00
11676;BME280;5894;42.768;23.404;2023-04-06T07:33:09;95314.81;;;3.32;100.00
11676;BME280;5894;42.768;23.404;2023-04-06T07:35:37;95313.28;;;3.42;100.00
11676;BME280;5894;42.768;23.404;2023-04-06T07:38:05;95325.50;;;3.61;100.00
11676;BME280;5894;42.768;23.404;2023-04-06T07:40:33;95323.94;;;3.60;100.00
11676;BME280;5894;42.768;23.404;2023-04-06T07:43:01;95290.31;;;3.49;100.00
11676;BME280;5894;42.768;23.404;2023-04-06T07:45:29;95326.00;;;3.79;100.00
11676;BME280;5894;42.768;23.404;2023-04-06T07:47:56;95308.53;;;3.79;100.00
11676;BME280;5894;42.768;23.404;2023-04-06T07:50:25;95325.19;;;3.93;100.00
11676;BME280;5894;42.768;23.404;2023-04-06T07:52:53;95322.31;;;3.95;100.00
11676;BME280;5894;42.768;23.404;2023-04-06T07:55:20;95307.19;;;3.87;100.00
11676;BME280;5894;42.768;23.404;2023-04-06T07:57:47;95326.47;;;4.01;100.00
11676;BME280;5894;42.768;23.404;2023-04-06T08:00:16;95313.47;;;3.86;100.00
11676;BME280;5894;42.768;23.404;2023-04-06T08:02:43;95331.66;;;4.11;100.00
11676;BME280;5894;42.768;23.404;2023-04-06T08:05:10;95330.09;;;4.10;100.00
11676;BME280;5894;42.768;23.404;2023-04-06T08:07:37;95307.69;;;4.04;100.00
11676;BME280;5894;42.768;23.404;2023-04-06T08:10:04;95331.16;;;4.09;100.00
11676;BME280;5894;42.768;23.404;2023-04-06T08:12:32;95310.31;;;4.04;100.00
11676;BME280;5894;42.768;23.404;2023-04-06T08:14:58;95321.19;;;4.16;100.00
11676;BME280;5894;42.768;23.404;2023-04-06T08:17:27;95325.38;;;4.17;100.00
11676;BME280;5894;42.768;23.404;2023-04-06T08:19:55;95296.47;;;4.03;100.00
11676;BME280;5894;42.768;23.404;2023-04-06T08:22:22;95323.53;;;4.18;100.00
11676;BME280;5894;42.768;23.404;2023-04-06T08:24:50;95326.91;;;4.28;100.00
11676;BME280;5894;42.768;23.404;2023-04-06T08:27:17;95277.44;;;3.98;100.00
11676;BME280;5894;42.768;23.404;2023-04-06T08:29:44;95333.91;;;4.43;100.00
11676;BME280;5894;42.768;23.404;2023-04-06T08:32:10;95339.91;;;4.43;100.00
11676;BME280;5894;42.768;23.404;2023-04-06T08:34:39;95332.59;;;4.40;100.00
11676;BME280;5894;42.768;23.404;2023-04-06T08:37:06;95289.66;;;4.13;100.00
11676;BME280;5894;42.768;23.404;2023-04-06T08:39:33;95343.53;;;4.48;100.00
11676;BME280;5894;42.768;23.404;2023-04-06T08:42:01;95341.66;;;4.58;100.00
11676;BME280;5894;42.768;23.404;2023-04-06T08:44:28;95321.59;;;4.49;100.00
11676;BME280;5894;42.768;23.404;2023-04-06T08:46:56;95305.44;;;4.41;100.00
11676;BME280;5894;42.768;23.404;2023-04-06T08:49:23;95328.84;;;4.67;100.00
11676;BME280;5894;42.768;23.404;2023-04-06T08:51:52;95341.13;;;4.66;100.00
11676;BME280;5894;42.768;23.404;2023-04-06T08:54:19;95337.94;;;4.69;100.00
11676;BME280;5894;42.768;23.404;2023-04-06T08:56:46;95323.31;;;4.68;99.83
11676;BME280;5894;42.768;23.404;2023-04-06T08:59:14;95305.88;;;4.59;100.00
11676;BME280;5894;42.768;23.404;2023-04-06T09:01:42;95340.44;;;4.90;99.25
11676;BME280;5894;42.768;23.404;2023-04-06T09:04:11;95339.91;;;4.93;97.72
11676;BME280;5894;42.768;23.404;2023-04-06T09:06:38;95304.56;;;4.61;96.80
11676;BME280;5894;42.768;23.404;2023-04-06T09:09:07;95344.09;;;4.94;98.19
11676;BME280;5894;42.768;23.404;2023-04-06T09:11:44;95309.72;;;4.76;97.02
11676;BME280;5894;42.768;23.404;2023-04-06T09:14:11;95321.44;;;4.84;96.04
11676;BME280;5894;42.768;23.404;2023-04-06T09:16:39;95267.28;;;4.51;95.86
11676;BME280;5894;42.768;23.404;2023-04-06T09:19:06;95341.44;;;4.99;96.26
11676;BME280;5894;42.768;23.404;2023-04-06T09:21:34;95331.22;;;5.07;96.71
11676;BME280;5894;42.768;23.404;2023-04-06T09:24:01;95272.91;;;4.73;95.94
11676;BME280;5894;42.768;23.404;2023-04-06T09:26:30;95314.19;;;5.10;97.02
11676;BME280;5894;42.768;23.404;2023-04-06T09:28:59;95329.78;;;5.25;95.52
11676;BME280;5894;42.768;23.404;2023-04-06T09:31:28;95296.47;;;5.02;93.09
11676;BME280;5894;42.768;23.404;2023-04-06T09:33:55;95330.28;;;5.27;93.15
11676;BME280;5894;42.768;23.404;2023-04-06T09:36:30;95314.16;;;5.15;92.60
11676;BME280;5894;42.768;23.404;2023-04-06T09:38:59;95325.66;;;5.19;93.10
11676;BME280;5894;42.768;23.404;2023-04-06T09:41:27;95333.44;;;5.24;93.47
11676;BME280;5894;42.768;23.404;2023-04-06T09:44:04;95334.03;;;5.16;94.30
11676;BME280;5894;42.768;23.404;2023-04-06T09:46:32;95297.53;;;5.01;96.26
11676;BME280;5894;42.768;23.404;2023-04-06T09:49:02;95341.47;;;5.33;94.38
11676;BME280;5894;42.768;23.404;2023-04-06T09:51:31;95336.72;;;5.40;93.06
11676;BME280;5894;42.768;23.404;2023-04-06T09:53:59;95324.56;;;5.25;91.49
11676;BME280;5894;42.768;23.404;2023-04-06T09:56:31;95281.81;;;5.06;92.13
11676;BME280;5894;42.768;23.404;2023-04-06T09:59:07;95318.66;;;5.43;94.74
11676;BME280;5894;42.768;23.404;2023-04-06T10:01:35;95325.53;;;5.63;92.75
11676;BME280;5894;42.768;23.404;2023-04-06T10:04:11;95329.63;;;5.74;91.42
11676;BME280;5894;42.768;23.404;2023-04-06T10:06:39;95293.44;;;5.58;90.46
11676;BME280;5894;42.768;23.404;2023-04-06T10:09:07;95329.78;;;5.88;88.15
11676;BME280;5894;42.768;23.404;2023-04-06T10:11:35;95328.16;;;5.92;88.33
11676;BME280;5894;42.768;23.404;2023-04-06T10:14:03;95328.22;;;5.87;89.10
11676;BME280;5894;42.768;23.404;2023-04-06T10:16:30;95334.69;;;5.95;87.40
11676;BME280;5894;42.768;23.404;2023-04-06T10:19:02;95337.38;;;5.89;87.28
11676;BME280;5894;42.768;23.404;2023-04-06T10:21:34;95312.34;;;5.78;87.96
11676;BME280;5894;42.768;23.404;2023-04-06T10:24:07;95275.69;;;5.78;86.85
11676;BME280;5894;42.768;23.404;2023-04-06T10:26:35;95324.53;;;6.17;87.23
11676;BME280;5894;42.768;23.404;2023-04-06T10:29:04;95299.47;;;6.11;85.92
11676;BME280;5894;42.768;23.404;2023-04-06T10:31:31;95291.56;;;6.35;84.92
11676;BME280;5894;42.768;23.404;2023-04-06T10:34:00;95310.66;;;6.59;84.68
11676;BME280;5894;42.768;23.404;2023-04-06T10:36:28;95313.25;;;6.64;82.56
11676;BME280;5894;42.768;23.404;2023-04-06T10:38:56;95307.56;;;6.76;82.08
11676;BME280;5894;42.768;23.404;2023-04-06T10:41:31;95302.25;;;6.81;82.96
11676;BME280;5894;42.768;23.404;2023-04-06T10:43:59;95306.63;;;6.85;79.84
11676;BME280;5894;42.768;23.404;2023-04-06T10:46:31;95301.56;;;6.94;82.52
11676;BME280;5894;42.768;23.404;2023-04-06T10:49:08;95297.78;;;7.00;81.34
11676;BME280;5894;42.768;23.404;2023-04-06T10:51:38;95316.66;;;7.02;77.57
11676;BME280;5894;42.768;23.404;2023-04-06T10:54:06;95257.75;;;6.76;77.99
11676;BME280;5894;42.768;23.404;2023-04-06T10:56:36;95291.84;;;6.94;79.76
11676;BME280;5894;42.768;23.404;2023-04-06T10:59:05;95286.16;;;6.87;80.30
11676;BME280;5894;42.768;23.404;2023-04-06T11:01:34;95291.84;;;6.94;79.51
11676;BME280;5894;42.768;23.404;2023-04-06T11:04:01;95221.47;;;6.50;79.24
11676;BME280;5894;42.768;23.404;2023-04-06T11:06:29;95256.28;;;6.70;77.98
11676;BME280;5894;42.768;23.404;2023-04-06T11:08:58;95239.28;;;6.67;78.27
11676;BME280;5894;42.768;23.404;2023-04-06T11:11:26;95281.44;;;6.89;77.02
11676;BME280;5894;42.768;23.404;2023-04-06T11:13:55;95238.78;;;6.65;78.21
11676;BME280;5894;42.768;23.404;2023-04-06T11:16:25;95260.69;;;6.93;80.06
11676;BME280;5894;42.768;23.404;2023-04-06T11:18:54;95244.03;;;6.84;79.32
11676;BME280;5894;42.768;23.404;2023-04-06T11:21:33;95270.78;;;6.99;77.48
11676;BME280;5894;42.768;23.404;2023-04-06T11:24:05;95275.09;;;7.09;79.88
11676;BME280;5894;42.768;23.404;2023-04-06T11:26:37;95166.22;;;6.47;78.25
11676;BME280;5894;42.768;23.404;2023-04-06T11:29:04;95267.16;;;7.14;77.07
11676;BME280;5894;42.768;23.404;2023-04-06T11:31:31;95271.13;;;7.12;75.87
11676;BME280;5894;42.768;23.404;2023-04-06T11:33:59;95253.34;;;7.09;78.11
11676;BME280;5894;42.768;23.404;2023-04-06T11:36:27;95276.78;;;7.19;78.79
11676;BME280;5894;42.768;23.404;2023-04-06T11:38:56;95239.91;;;6.96;77.36
11676;BME280;5894;42.768;23.404;2023-04-06T11:41:23;95270.56;;;7.15;76.55
11676;BME280;5894;42.768;23.404;2023-04-06T11:43:55;95169.91;;;6.46;76.55
11676;BME280;5894;42.768;23.404;2023-04-06T11:46:22;95271.00;;;7.03;76.55
11676;BME280;5894;42.768;23.404;2023-04-06T11:48:49;95207.34;;;6.65;75.53
11676;BME280;5894;42.768;23.404;2023-04-06T11:51:23;95242.66;;;6.86;77.44
11676;BME280;5894;42.768;23.404;2023-04-06T11:53:50;95264.28;;;7.16;76.20
11676;BME280;5894;42.768;23.404;2023-04-06T11:56:23;95268.41;;;7.17;76.66
11676;BME280;5894;42.768;23.404;2023-04-06T11:58:51;95263.50;;;7.15;74.14
11676;BME280;5894;42.768;23.404;2023-04-06T12:01:18;95200.72;;;6.86;75.90
11676;BME280;5894;42.768;23.404;2023-04-06T12:03:45;95254.28;;;7.31;75.26
11676;BME280;5894;42.768;23.404;2023-04-06T12:06:12;95254.91;;;7.42;76.00
11676;BME280;5894;42.768;23.404;2023-04-06T12:08:40;95229.25;;;7.39;75.51
11676;BME280;5894;42.768;23.404;2023-04-06T12:11:07;95241.91;;;7.51;77.31
11676;BME280;5894;42.768;23.404;2023-04-06T12:13:34;95231.72;;;7.63;72.71
11676;BME280;5894;42.768;23.404;2023-04-06T12:16:01;95245.81;;;7.81;73.35
11676;BME280;5894;42.768;23.404;2023-04-06T12:18:27;95229.41;;;7.75;71.85
11676;BME280;5894;42.768;23.404;2023-04-06T12:20:54;95244.56;;;7.92;70.85
11676;BME280;5894;42.768;23.404;2023-04-06T12:23:21;95146.38;;;7.38;71.78
11676;BME280;5894;42.768;23.404;2023-04-06T12:25:49;95193.16;;;7.77;69.49
11676;BME280;5894;42.768;23.404;2023-04-06T12:28:17;95199.06;;;7.83;69.67
11676;BME280;5894;42.768;23.404;2023-04-06T12:30:46;95223.00;;;8.08;69.97
11676;BME280;5894;42.768;23.404;2023-04-06T12:33:12;95197.59;;;7.90;68.83
11676;BME280;5894;42.768;23.404;2023-04-06T12:35:39;95232.50;;;8.04;70.39
11676;BME280;5894;42.768;23.404;2023-04-06T12:38:06;95229.09;;;8.18;69.86
11676;BME280;5894;42.768;23.404;2023-04-06T12:40:36;95231.81;;;8.26;69.45
11676;BME280;5894;42.768;23.404;2023-04-06T12:43:04;95221.22;;;8.18;68.17
11676;BME280;5894;42.768;23.404;2023-04-06T12:45:31;95207.53;;;8.07;68.59
11676;BME280;5894;42.768;23.404;2023-04-06T12:47:58;95223.84;;;8.31;68.83
11676;BME280;5894;42.768;23.404;2023-04-06T12:50:25;95224.72;;;8.27;68.48
11676;BME280;5894;42.768;23.404;2023-04-06T12:52:52;95218.97;;;8.25;67.83
11676;BME280;5894;42.768;23.404;2023-04-06T12:55:20;95112.84;;;7.49;67.37
11676;BME280;5894;42.768;23.404;2023-04-06T12:57:47;95217.63;;;8.27;68.58
11676;BME280;5894;42.768;23.404;2023-04-06T13:00:16;95215.00;;;8.27;67.72
11676;BME280;5894;42.768;23.404;2023-04-06T13:02:43;95196.53;;;8.19;67.20
11676;BME280;5894;42.768;23.404;2023-04-06T13:05:13;95195.34;;;8.11;66.25
11676;BME280;5894;42.768;23.404;2023-04-06T13:07:44;95171.06;;;7.92;67.02
11676;BME280;5894;42.768;23.404;2023-04-06T13:10:12;95198.16;;;8.01;67.90
11676;BME280;5894;42.768;23.404;2023-04-06T13:12:38;95199.25;;;8.00;66.90